createdAt,value
2023-04-04T00:00:30.557Z,99647.13
2023-04-04T00:02:34.404Z,99655.47
2023-04-04T00:04:36.073Z,99650.28
2023-04-04T00:06:37.823Z,99644.00
2023-04-04T00:08:48.079Z,99649.63
2023-04-04T00:10:49.698Z,99643.38
2023-04-04T00:12:51.482Z,99635.22
2023-04-04T00:14:56.218Z,99637.72
2023-04-04T00:16:57.675Z,99638.56
2023-04-04T00:19:00.207Z,99638.56
2023-04-04T00:21:01.681Z,99636.69
2023-04-04T00:23:03.259Z,99634.81
2023-04-04T00:25:09.897Z,99634.41
2023-04-04T00:27:11.474Z,99637.72
2023-04-04T00:29:13.215Z,99626.47
2023-04-04T00:31:15.221Z,99628.59
2023-04-04T00:33:17.334Z,99629.84
2023-04-04T00:35:19.155Z,99632.75
2023-04-04T00:37:21.842Z,99621.28
2023-04-04T00:39:27.133Z,99621.50
2023-04-04T00:41:28.927Z,99621.50
2023-04-04T00:43:30.559Z,99616.09
2023-04-04T00:45:34.337Z,99618.56
2023-04-04T00:47:37.848Z,99622.97
2023-04-04T00:49:39.465Z,99616.28
2023-04-04T00:51:40.918Z,99619.41
2023-04-04T00:53:46.260Z,99615.66
2023-04-04T00:55:47.862Z,99613.78
2023-04-04T00:57:55.498Z,99616.50
2023-04-04T00:59:59.174Z,99616.50
2023-04-04T01:02:01.145Z,99606.66
2023-04-04T01:04:03.391Z,99618.56
2023-04-04T01:06:04.873Z,99617.94
2023-04-04T01:08:09.889Z,99614.59
2023-04-04T01:10:12.180Z,99608.56
2023-04-04T01:12:14.277Z,99613.16
2023-04-04T01:14:16.192Z,99616.09
2023-04-04T01:16:23.432Z,99607.28
2023-04-04T01:18:26.764Z,99608.34
2023-04-04T01:20:32.545Z,99615.03
2023-04-04T01:22:34.944Z,99609.78
2023-04-04T01:24:37.045Z,99610.63
2023-04-04T01:26:41.292Z,99606.28
2023-04-04T01:28:42.765Z,99598.13
2023-04-04T01:30:47.518Z,99608.13
2023-04-04T01:32:56.581Z,99610.63
2023-04-04T01:35:08.810Z,99604.81
2023-04-04T01:37:14.025Z,99602.09
2023-04-04T01:39:24.819Z,99610.22
2023-04-04T01:41:29.763Z,99605.84
2023-04-04T01:43:40.315Z,99609.38
2023-04-04T01:45:42.064Z,99606.88
2023-04-04T01:47:47.313Z,99601.44
2023-04-04T01:49:56.526Z,99597.69
2023-04-04T01:51:58.946Z,99596.84
2023-04-04T01:54:04.696Z,99599.38
2023-04-04T01:56:16.574Z,99598.53
2023-04-04T01:58:19.463Z,99599.38
2023-04-04T02:00:23.500Z,99601.03
2023-04-04T02:02:25.593Z,99595.59
2023-04-04T02:04:30.051Z,99598.53
2023-04-04T02:06:31.666Z,99599.38
2023-04-04T02:08:33.396Z,99600.84
2023-04-04T02:10:35.401Z,99600.63
2023-04-04T02:12:42.860Z,99602.50
2023-04-04T02:14:49.622Z,99603.94
2023-04-04T02:16:51.690Z,99599.78
2023-04-04T02:18:55.690Z,99595.59
2023-04-04T02:21:00.346Z,99594.75
2023-04-04T02:23:01.800Z,99594.75
2023-04-04T02:25:08.191Z,99591.41
2023-04-04T02:27:10.079Z,99588.72
2023-04-04T02:29:12.753Z,99589.78
2023-04-04T02:31:14.241Z,99581.81
2023-04-04T02:33:18.105Z,99580.34
2023-04-04T02:35:20.681Z,99583.06
2023-04-04T02:37:22.144Z,99582.22
2023-04-04T02:39:26.676Z,99579.72
2023-04-04T02:41:28.949Z,99576.00
2023-04-04T02:43:38.508Z,99583.28
2023-04-04T02:45:42.750Z,99577.84
2023-04-04T02:47:57.267Z,99565.31
2023-04-04T02:50:10.743Z,99573.28
2023-04-04T02:52:13.435Z,99573.47
2023-04-04T02:54:18.566Z,99568.88
2023-04-04T02:56:22.140Z,99565.13
2023-04-04T02:58:25.735Z,99564.91
2023-04-04T03:00:27.473Z,99568.25
2023-04-04T03:02:29.015Z,99559.06
2023-04-04T03:04:30.585Z,99563.25
2023-04-04T03:06:33.733Z,99567.19
2023-04-04T03:08:35.871Z,99564.69
2023-04-04T03:10:37.415Z,99558.84
2023-04-04T03:12:39.133Z,99565.75
2023-04-04T03:14:43.915Z,99572.41
2023-04-04T03:16:49.888Z,99559.47
2023-04-04T03:18:51.568Z,99570.72
2023-04-04T03:20:55.489Z,99565.13
2023-04-04T03:22:57.773Z,99570.09
2023-04-04T03:24:59.259Z,99568.03
2023-04-04T03:27:01.546Z,99565.31
2023-04-04T03:29:04.356Z,99560.69
2023-04-04T03:31:06.613Z,99557.16
2023-04-04T03:33:11.393Z,99559.03
2023-04-04T03:35:13.564Z,99555.47
2023-04-04T03:37:16.137Z,99563.63
2023-04-04T03:39:17.910Z,99558.41
2023-04-04T03:41:21.257Z,99560.28
2023-04-04T03:43:27.067Z,99555.91
2023-04-04T03:45:49.329Z,99559.03
2023-04-04T03:47:51.666Z,99561.97
2023-04-04T03:49:53.456Z,99563.22
2023-04-04T03:51:55.092Z,99566.16
2023-04-04T03:54:01.171Z,99561.75
2023-04-04T03:56:04.622Z,99563.03
2023-04-04T03:58:06.142Z,99561.34
2023-04-04T04:00:08.200Z,99565.13
2023-04-04T04:02:15.457Z,99559.06
2023-04-04T04:04:17.062Z,99554.69
2023-04-04T04:06:20.861Z,99563.84
2023-04-04T04:08:25.521Z,99563.22
2023-04-04T04:10:31.910Z,99560.94
2023-04-04T04:12:33.468Z,99562.00
2023-04-04T04:14:34.901Z,99555.94
2023-04-04T04:16:39.624Z,99554.25
2023-04-04T04:18:42.400Z,99548.00
2023-04-04T04:20:49.147Z,99551.78
2023-04-04T04:22:53.351Z,99553.84
2023-04-04T04:24:55.800Z,99552.19
2023-04-04T04:26:57.249Z,99552.38
2023-04-04T04:28:58.801Z,99558.88
2023-04-04T04:31:08.355Z,99554.69
2023-04-04T04:33:21.256Z,99553.00
2023-04-04T04:35:30.720Z,99556.56
2023-04-04T04:37:33.593Z,99561.38
2023-04-04T04:39:39.570Z,99553.41
2023-04-04T04:41:54.970Z,99554.25
2023-04-04T04:43:58.037Z,99547.19
2023-04-04T04:46:04.312Z,99555.50
2023-04-04T04:48:07.039Z,99550.06
2023-04-04T04:50:16.253Z,99551.94
2023-04-04T04:52:20.532Z,99557.59
2023-04-04T04:54:22.020Z,99549.47
2023-04-04T04:56:28.971Z,99552.34
2023-04-04T04:58:38.542Z,99555.06
2023-04-04T05:00:44.447Z,99554.44
2023-04-04T05:02:51.026Z,99551.75
2023-04-04T05:05:06.788Z,99547.56
2023-04-04T05:07:09.752Z,99546.94
2023-04-04T05:09:12.492Z,99552.59
2023-04-04T05:11:14.303Z,99548.41
2023-04-04T05:13:16.563Z,99554.88
2023-04-04T05:15:21.893Z,99554.44
2023-04-04T05:17:26.153Z,99557.81
2023-04-04T05:19:31.605Z,99553.63
2023-04-04T05:21:34.256Z,99566.34
2023-04-04T05:23:40.234Z,99564.66
2023-04-04T05:25:43.581Z,99562.16
2023-04-04T05:27:48.874Z,99564.25
2023-04-04T05:29:53.730Z,99568.84
2023-04-04T05:31:56.771Z,99567.16
2023-04-04T05:33:59.204Z,99561.75
2023-04-04T05:36:05.419Z,99561.75
2023-04-04T05:38:09.822Z,99572.59
2023-04-04T05:40:11.734Z,99563.41
2023-04-04T05:42:16.574Z,99565.91
2023-04-04T05:44:23.065Z,99572.19
2023-04-04T05:46:24.647Z,99569.47
2023-04-04T05:48:29.281Z,99570.50
2023-04-04T05:50:36.790Z,99558.84
2023-04-04T05:52:40.131Z,99574.06
2023-04-04T05:54:49.938Z,99571.75
2023-04-04T05:57:01.919Z,99562.81
2023-04-04T05:59:26.125Z,99574.69
2023-04-04T06:01:35.412Z,99570.94
2023-04-04T06:03:43.834Z,99569.88
2023-04-04T06:05:52.616Z,99578.00
2023-04-04T06:07:54.570Z,99572.41
2023-04-04T06:09:56.397Z,99575.31
2023-04-04T06:11:57.986Z,99571.75
2023-04-04T06:13:59.475Z,99579.06
2023-04-04T06:16:01.288Z,99581.78
2023-04-04T06:18:02.899Z,99574.69
2023-04-04T06:20:12.268Z,99579.06
2023-04-04T06:22:16.098Z,99579.69
2023-04-04T06:24:24.793Z,99575.75
2023-04-04T06:26:27.112Z,99576.75
2023-04-04T06:28:31.564Z,99574.69
2023-04-04T06:30:36.462Z,99578.03
2023-04-04T06:32:39.892Z,99572.22
2023-04-04T06:34:42.398Z,99575.13
2023-04-04T06:36:45.390Z,99572.00
2023-04-04T06:38:48.177Z,99571.56
2023-04-04T06:40:53.511Z,99575.97
2023-04-04T06:42:58.125Z,99578.25
2023-04-04T06:45:05.652Z,99572.19
2023-04-04T06:47:08.503Z,99570.50
2023-04-04T06:49:10.030Z,99574.22
2023-04-04T06:51:12.092Z,99580.00
2023-04-04T06:53:18.320Z,99582.84
2023-04-04T06:55:19.904Z,99575.25
2023-04-04T06:57:21.467Z,99578.50
2023-04-04T06:59:23.102Z,99570.44
2023-04-04T07:01:24.746Z,99571.56
2023-04-04T07:03:27.282Z,99581.09
2023-04-04T07:05:29.618Z,99581.75
2023-04-04T07:07:31.218Z,99572.81
2023-04-04T07:09:32.696Z,99581.63
2023-04-04T07:11:34.296Z,99574.09
2023-04-04T07:13:35.962Z,99576.38
2023-04-04T07:15:37.492Z,99576.34
2023-04-04T07:17:39.234Z,99572.97
2023-04-04T07:19:40.635Z,99577.81
2023-04-04T07:21:45.256Z,99572.38
2023-04-04T07:23:47.195Z,99568.03
2023-04-04T07:25:48.866Z,99574.38
2023-04-04T07:27:59.589Z,99580.94
2023-04-04T07:30:11.196Z,99571.97
2023-04-04T07:32:15.097Z,99568.84
2023-04-04T07:34:17.058Z,99568.78
2023-04-04T07:36:18.550Z,99560.69
2023-04-04T07:38:20.477Z,99563.09
2023-04-04T07:40:22.125Z,99569.72
2023-04-04T07:42:23.582Z,99563.78
2023-04-04T07:44:25.044Z,99573.41
2023-04-04T07:46:27.892Z,99575.91
2023-04-04T07:48:29.555Z,99569.97
2023-04-04T07:50:33.847Z,99566.16
2023-04-04T07:52:35.720Z,99562.72
2023-04-04T07:54:37.272Z,99559.25
2023-04-04T07:56:38.835Z,99560.44
2023-04-04T07:58:40.278Z,99550.69
2023-04-04T08:00:44.569Z,99555.19
2023-04-04T08:02:46.307Z,99558.66
2023-04-04T08:04:47.926Z,99562.09
2023-04-04T08:06:53.088Z,99560.63
2023-04-04T08:08:54.629Z,99565.53
2023-04-04T08:10:56.144Z,99561.06
2023-04-04T08:12:57.584Z,99552.88
2023-04-04T08:14:59.252Z,99568.66
2023-04-04T08:17:04.612Z,99554.00
2023-04-04T08:19:08.996Z,99551.84
2023-04-04T08:21:10.496Z,99557.91
2023-04-04T08:23:13.056Z,99554.81
2023-04-04T08:25:14.667Z,99559.38
2023-04-04T08:27:16.906Z,99556.53
2023-04-04T08:29:18.635Z,99565.25
2023-04-04T08:31:20.158Z,99558.56
2023-04-04T08:33:25.680Z,99558.72
2023-04-04T08:35:33.159Z,99558.47
2023-04-04T08:37:35.927Z,99548.72
2023-04-04T08:39:42.175Z,99563.81
2023-04-04T08:41:45.625Z,99572.25
2023-04-04T08:43:54.176Z,99562.13
2023-04-04T08:45:56.591Z,99560.72
2023-04-04T08:47:59.422Z,99565.22
2023-04-04T08:50:05.633Z,99563.22
2023-04-04T08:52:08.823Z,99569.16
2023-04-04T08:54:12.944Z,99563.38
2023-04-04T08:56:14.440Z,99556.38
2023-04-04T08:58:17.410Z,99565.88
2023-04-04T09:00:21.428Z,99554.84
2023-04-04T09:02:48.450Z,99561.50
2023-04-04T09:05:05.368Z,99558.03
2023-04-04T09:07:12.617Z,99556.28
2023-04-04T09:09:16.567Z,99553.19
2023-04-04T09:11:20.607Z,99550.34
2023-04-04T09:13:22.874Z,99551.66
2023-04-04T09:15:24.890Z,99551.53
2023-04-04T09:17:26.713Z,99544.03
2023-04-04T09:19:28.348Z,99549.41
2023-04-04T09:21:33.412Z,99553.69
2023-04-04T09:23:34.875Z,99547.84
2023-04-04T09:25:37.662Z,99547.50
2023-04-04T09:27:39.112Z,99549.03
2023-04-04T09:29:41.951Z,99549.28
2023-04-04T09:31:46.690Z,99548.19
2023-04-04T09:33:50.064Z,99555.94
2023-04-04T09:35:55.655Z,99553.78
2023-04-04T09:37:57.773Z,99551.66
2023-04-04T09:39:59.510Z,99550.00
2023-04-04T09:42:01.745Z,99546.69
2023-04-04T09:44:04.025Z,99557.63
2023-04-04T09:46:07.973Z,99552.63
2023-04-04T09:48:10.232Z,99553.91
2023-04-04T09:50:21.708Z,99550.47
2023-04-04T09:52:23.114Z,99550.69
2023-04-04T09:54:30.125Z,99552.84
2023-04-04T09:56:38.909Z,99555.44
2023-04-04T09:58:52.421Z,99552.13
2023-04-04T10:01:02.717Z,99553.19
2023-04-04T10:03:08.304Z,99554.84
2023-04-04T10:05:10.448Z,99548.31
2023-04-04T10:07:14.888Z,99552.25
2023-04-04T10:09:16.544Z,99549.50
2023-04-04T10:11:30.339Z,99549.97
2023-04-04T10:13:35.656Z,99554.38
2023-04-04T10:15:42.778Z,99549.97
2023-04-04T10:17:47.157Z,99547.25
2023-04-04T10:19:49.819Z,99549.13
2023-04-04T10:21:51.874Z,99541.19
2023-04-04T10:24:00.062Z,99548.78
2023-04-04T10:26:03.935Z,99551.75
2023-04-04T10:28:05.838Z,99543.78
2023-04-04T10:30:08.088Z,99546.75
2023-04-04T10:32:17.372Z,99539.84
2023-04-04T10:34:30.470Z,99543.78
2023-04-04T10:36:39.316Z,99534.31
2023-04-04T10:38:44.939Z,99539.50
2023-04-04T10:40:53.991Z,99534.06
2023-04-04T10:42:57.637Z,99540.09
2023-04-04T10:45:19.388Z,99528.59
2023-04-04T10:47:23.344Z,99539.75
2023-04-04T10:49:27.842Z,99531.78
2023-04-04T10:51:32.627Z,99542.13
2023-04-04T10:53:36.014Z,99537.75
2023-04-04T10:55:39.014Z,99544.00
2023-04-04T10:57:43.203Z,99539.03
2023-04-04T11:00:07.971Z,99540.56
2023-04-04T11:02:09.609Z,99537.84
2023-04-04T11:04:20.736Z,99542.94
2023-04-04T11:06:24.393Z,99542.00
2023-04-04T11:08:28.651Z,99537.56
2023-04-04T11:10:33.447Z,99539.72
2023-04-04T11:12:45.690Z,99541.16
2023-04-04T11:14:58.965Z,99540.19
2023-04-04T11:17:00.744Z,99537.69
2023-04-04T11:19:12.706Z,99541.69
2023-04-04T11:21:27.341Z,99545.69
2023-04-04T11:23:58.470Z,99534.25
2023-04-04T11:26:00.909Z,99530.53
2023-04-04T11:28:12.692Z,99529.94
2023-04-04T11:30:14.902Z,99519.72
2023-04-04T11:32:59.779Z,99523.28
2023-04-04T11:35:06.368Z,99529.34
2023-04-04T11:37:21.899Z,99531.16
2023-04-04T11:39:27.082Z,99528.41
2023-04-04T11:41:53.044Z,99530.53
2023-04-04T11:43:54.651Z,99531.16
2023-04-04T11:46:09.385Z,99527.38
2023-04-04T11:48:13.918Z,99524.16
2023-04-04T11:50:16.826Z,99522.03
2023-04-04T11:52:18.659Z,99527.16
2023-04-04T11:54:20.437Z,99510.88
2023-04-04T11:56:21.958Z,99512.78
2023-04-04T11:58:26.510Z,99511.13
2023-04-04T12:00:42.396Z,99511.34
2023-04-04T12:02:44.344Z,99502.91
2023-04-04T12:04:47.277Z,99505.03
2023-04-04T12:06:58.711Z,99507.16
2023-04-04T12:09:03.963Z,99505.75
2023-04-04T12:11:11.519Z,99493.22
2023-04-04T12:13:13.159Z,99506.19
2023-04-04T12:15:17.820Z,99500.22
2023-04-04T12:17:19.621Z,99498.69
2023-04-04T12:19:25.186Z,99492.72
2023-04-04T12:21:26.766Z,99492.47
2023-04-04T12:23:32.845Z,99494.97
2023-04-04T12:25:34.894Z,99490.31
2023-04-04T12:27:36.892Z,99489.84
2023-04-04T12:29:38.678Z,99488.63
2023-04-04T12:31:46.885Z,99481.47
2023-04-04T12:33:48.523Z,99482.00
2023-04-04T12:35:54.941Z,99488.03
2023-04-04T12:38:07.666Z,99475.44
2023-04-04T12:40:10.756Z,99482.25
2023-04-04T12:42:13.677Z,99484.94
2023-04-04T12:44:27.798Z,99467.31
2023-04-04T12:46:39.833Z,99477.91
2023-04-04T12:48:41.760Z,99479.25
2023-04-04T12:50:57.644Z,99464.63
2023-04-04T12:53:18.488Z,99465.09
2023-04-04T12:55:23.921Z,99460.00
2023-04-04T12:57:27.475Z,99457.91
2023-04-04T12:59:30.287Z,99459.03
2023-04-04T13:01:32.791Z,99460.22
2023-04-04T13:03:37.957Z,99456.97
2023-04-04T13:05:40.387Z,99447.97
2023-04-04T13:07:45.144Z,99446.06
2023-04-04T13:09:58.988Z,99447.44
2023-04-04T13:12:05.782Z,99437.88
2023-04-04T13:14:07.551Z,99440.69
2023-04-04T13:16:42.774Z,99437.41
2023-04-04T13:18:44.325Z,99425.97
2023-04-04T13:20:45.993Z,99425.78
2023-04-04T13:22:47.528Z,99408.56
2023-04-04T13:24:49.054Z,99415.56
2023-04-04T13:26:50.726Z,99414.84
2023-04-04T13:28:55.116Z,99415.47
2023-04-04T13:30:56.689Z,99422.22
2023-04-04T13:32:58.127Z,99418.41
2023-04-04T13:35:02.313Z,99428.88
2023-04-04T13:37:05.746Z,99426.13
2023-04-04T13:39:07.508Z,99421.13
2023-04-04T13:41:08.903Z,99408.19
2023-04-04T13:43:15.086Z,99409.53
2023-04-04T13:45:16.907Z,99410.06
2023-04-04T13:47:18.393Z,99404.31
2023-04-04T13:49:19.846Z,99408.47
2023-04-04T13:51:21.502Z,99403.25
2023-04-04T13:53:23.086Z,99407.41
2023-04-04T13:55:27.841Z,99411.53
2023-04-04T13:57:29.496Z,99406.03
2023-04-04T13:59:34.316Z,99405.47
2023-04-04T14:01:40.696Z,99404.09
2023-04-04T14:03:42.635Z,99401.81
2023-04-04T14:05:44.703Z,99408.59
2023-04-04T14:07:49.219Z,99403.56
2023-04-04T14:09:50.899Z,99403.78
2023-04-04T14:11:52.356Z,99399.31
2023-04-04T14:13:53.999Z,99391.63
2023-04-04T14:15:59.214Z,99391.63
2023-04-04T14:18:00.840Z,99391.38
2023-04-04T14:20:03.874Z,99402.06
2023-04-04T14:22:06.400Z,99398.53
2023-04-04T14:24:07.946Z,99393.78
2023-04-04T14:26:14.203Z,99391.59
2023-04-04T14:28:18.959Z,99389.91
2023-04-04T14:30:20.868Z,99394.84
2023-04-04T14:32:35.112Z,99386.28
2023-04-04T14:34:37.132Z,99384.88
2023-04-04T14:36:38.679Z,99393.06
2023-04-04T14:38:40.254Z,99385.34
2023-04-04T14:40:41.864Z,99387.25
2023-04-04T14:42:43.316Z,99393.25
2023-04-04T14:44:45.112Z,99392.91
2023-04-04T14:46:46.744Z,99392.34
2023-04-04T14:48:48.240Z,99385.72
2023-04-04T14:50:50.276Z,99384.00
2023-04-04T14:52:57.871Z,99388.34
2023-04-04T14:55:05.507Z,99381.72
2023-04-04T14:57:09.311Z,99380.81
2023-04-04T14:59:10.928Z,99382.09
2023-04-04T15:01:12.740Z,99375.75
2023-04-04T15:03:17.007Z,99374.00
2023-04-04T15:05:22.266Z,99384.91
2023-04-04T15:07:24.235Z,99380.41
2023-04-04T15:09:27.958Z,99391.81
2023-04-04T15:11:36.880Z,99385.97
2023-04-04T15:13:41.127Z,99389.97
2023-04-04T15:15:45.059Z,99385.41
2023-04-04T15:17:46.731Z,99377.88
2023-04-04T15:19:48.330Z,99374.97
2023-04-04T15:21:55.173Z,99372.66
2023-04-04T15:23:56.697Z,99373.06
2023-04-04T15:25:58.222Z,99373.59
2023-04-04T15:28:01.095Z,99366.03
2023-04-04T15:30:02.581Z,99360.72
2023-04-04T15:32:04.089Z,99365.94
2023-04-04T15:34:05.654Z,99357.41
2023-04-04T15:36:10.453Z,99356.25
2023-04-04T15:38:12.033Z,99357.56
2023-04-04T15:40:16.450Z,99367.03
2023-04-04T15:42:18.039Z,99360.88
2023-04-04T15:44:20.665Z,99363.03
2023-04-04T15:46:22.160Z,99358.06
2023-04-04T15:48:23.736Z,99356.28
2023-04-04T15:50:25.425Z,99354.63
2023-04-04T15:52:28.648Z,99350.75
2023-04-04T15:54:31.434Z,99351.81
2023-04-04T15:56:33.018Z,99350.97
2023-04-04T15:58:34.633Z,99350.97
2023-04-04T16:00:37.600Z,99350.13
2023-04-04T16:02:39.339Z,99343.50
2023-04-04T16:04:40.910Z,99346.38
2023-04-04T16:06:42.324Z,99348.53
2023-04-04T16:08:46.820Z,99349.84
2023-04-04T16:10:48.327Z,99350.34
2023-04-04T16:12:49.776Z,99352.19
2023-04-04T16:14:51.222Z,99351.81
2023-04-04T16:16:52.834Z,99344.59
2023-04-04T16:18:54.322Z,99346.50
2023-04-04T16:20:56.185Z,99348.91
2023-04-04T16:22:59.794Z,99346.41
2023-04-04T16:25:01.316Z,99346.06
2023-04-04T16:27:02.767Z,99345.97
2023-04-04T16:29:04.302Z,99348.13
2023-04-04T16:31:06.527Z,99345.88
2023-04-04T16:33:08.115Z,99342.88
2023-04-04T16:35:12.314Z,99345.28
2023-04-04T16:37:15.841Z,99345.78
2023-04-04T16:39:47.309Z,99340.44
2023-04-04T16:42:48.026Z,99333.47
2023-04-04T16:45:11.713Z,99330.38
2023-04-04T16:47:13.383Z,99328.13
2023-04-04T16:49:32.232Z,99322.31
2023-04-04T16:54:13.672Z,99329.34
2023-04-04T16:56:16.402Z,99323.75
2023-04-04T16:58:21.693Z,99317.47
2023-04-04T17:00:24.050Z,99324.75
2023-04-04T17:02:26.588Z,99313.09
2023-04-04T17:04:28.143Z,99317.13
2023-04-04T17:06:29.959Z,99314.06
2023-04-04T17:08:32.050Z,99320.59
2023-04-04T17:10:34.336Z,99308.97
2023-04-04T17:12:39.292Z,99314.34
2023-04-04T17:14:40.793Z,99311.47
2023-04-04T17:16:43.566Z,99315.13
2023-04-04T17:18:45.272Z,99313.13
2023-04-04T17:20:51.164Z,99313.38
2023-04-04T17:22:53.969Z,99318.94
2023-04-04T17:24:55.658Z,99310.88
2023-04-04T17:26:58.332Z,99316.69
2023-04-04T17:29:02.936Z,99316.19
2023-04-04T17:31:04.745Z,99312.16
2023-04-04T17:33:09.007Z,99307.91
2023-04-04T17:35:10.447Z,99311.56
2023-04-04T17:37:18.886Z,99305.16
2023-04-04T17:39:20.556Z,99319.97
2023-04-04T17:41:22.069Z,99306.22
2023-04-04T17:43:23.702Z,99314.84
2023-04-04T17:45:29.483Z,99314.72
2023-04-04T17:47:33.716Z,99311.41
2023-04-04T17:49:38.161Z,99305.34
2023-04-04T17:51:42.704Z,99305.19
2023-04-04T17:53:47.769Z,99299.63
2023-04-04T17:55:49.908Z,99304.47
2023-04-04T17:57:53.807Z,99310.38
2023-04-04T17:59:55.399Z,99304.94
2023-04-04T18:02:00.016Z,99306.47
2023-04-04T18:04:02.601Z,99314.91
2023-04-04T18:06:09.472Z,99313.94
2023-04-04T18:08:11.153Z,99314.38
2023-04-04T18:10:12.895Z,99307.50
2023-04-04T18:12:20.685Z,99310.34
2023-04-04T18:14:24.699Z,99309.72
2023-04-04T18:16:29.523Z,99306.63
2023-04-04T18:18:31.495Z,99307.44
2023-04-04T18:20:35.245Z,99303.28
2023-04-04T18:22:45.275Z,99306.25
2023-04-04T18:24:48.682Z,99313.00
2023-04-04T18:26:52.179Z,99315.13
2023-04-04T18:28:56.671Z,99308.22
2023-04-04T18:30:58.547Z,99311.41
2023-04-04T18:33:00.191Z,99308.91
2023-04-04T18:35:01.996Z,99308.91
2023-04-04T18:37:03.537Z,99314.81
2023-04-04T18:39:09.097Z,99317.97
2023-04-04T18:41:12.321Z,99318.22
2023-04-04T18:43:13.939Z,99323.28
2023-04-04T18:45:16.775Z,99322.44
2023-04-04T18:47:18.815Z,99326.25
2023-04-04T18:49:20.488Z,99325.16
2023-04-04T18:51:27.660Z,99324.13
2023-04-04T18:53:29.420Z,99329.56
2023-04-04T18:55:31.839Z,99329.56
2023-04-04T18:57:34.382Z,99324.13
2023-04-04T18:59:36.130Z,99336.66
2023-04-04T19:01:39.057Z,99335.59
2023-04-04T19:03:43.070Z,99332.88
2023-04-04T19:05:48.846Z,99340.00
2023-04-04T19:07:53.347Z,99340.59
2023-04-04T19:09:56.269Z,99335.38
2023-04-04T19:11:57.816Z,99346.25
2023-04-04T19:14:00.196Z,99337.03
2023-04-04T19:16:03.387Z,99338.09
2023-04-04T19:18:05.290Z,99335.59
2023-04-04T19:20:10.639Z,99345.66
2023-04-04T19:22:12.285Z,99339.38
2023-04-04T19:24:14.883Z,99344.22
2023-04-04T19:26:18.269Z,99346.34
2023-04-04T19:28:21.866Z,99346.34
2023-04-04T19:30:44.798Z,99346.81
2023-04-04T19:32:46.920Z,99353.94
2023-04-04T19:34:49.160Z,99342.44
2023-04-04T19:36:50.663Z,99347.03
2023-04-04T19:38:55.632Z,99342.66
2023-04-04T19:41:26.350Z,99341.81
2023-04-04T19:43:30.973Z,99343.09
2023-04-04T19:45:48.968Z,99344.38
2023-04-04T19:47:50.554Z,99349.22
2023-04-04T19:49:53.224Z,99347.78
2023-04-04T19:51:58.599Z,99347.19
2023-04-04T19:54:00.451Z,99343.63
2023-04-04T19:56:08.513Z,99349.91
2023-04-04T19:58:21.044Z,99348.72
2023-04-04T20:00:24.075Z,99346.19
2023-04-04T20:02:32.976Z,99350.00
2023-04-04T20:04:34.707Z,99351.66
2023-04-04T20:06:40.030Z,99353.75
2023-04-04T20:08:48.864Z,99361.09
2023-04-04T20:10:53.997Z,99359.66
2023-04-04T20:12:58.388Z,99355.50
2023-04-04T20:14:59.930Z,99363.06
2023-04-04T20:17:01.723Z,99359.50
2023-04-04T20:19:10.228Z,99361.19
2023-04-04T20:21:19.479Z,99363.06
2023-04-04T20:23:25.364Z,99357.84
2023-04-04T20:25:45.416Z,99363.50
2023-04-04T20:27:54.239Z,99362.66
2023-04-04T20:29:55.997Z,99367.06
2023-04-04T20:32:03.268Z,99362.66
2023-04-04T20:34:07.331Z,99367.31
2023-04-04T20:36:09.057Z,99365.63
2023-04-04T20:38:11.057Z,99371.31
2023-04-04T20:40:14.496Z,99370.22
2023-04-04T20:42:19.132Z,99368.59
2023-04-04T20:44:20.971Z,99372.34
2023-04-04T20:46:24.950Z,99363.59
2023-04-04T20:48:40.115Z,99366.75
2023-04-04T20:50:44.027Z,99373.25
2023-04-04T20:52:49.042Z,99371.59
2023-04-04T20:54:50.840Z,99371.78
2023-04-04T20:56:53.044Z,99366.59
2023-04-04T20:58:54.707Z,99367.63
2023-04-04T21:00:58.637Z,99374.16
2023-04-04T21:03:07.316Z,99371.88
2023-04-04T21:05:26.553Z,99367.72
2023-04-04T21:07:41.717Z,99376.31
2023-04-04T21:09:49.532Z,99368.81
2023-04-04T21:11:51.466Z,99369.66
2023-04-04T21:13:52.985Z,99368.81
2023-04-04T21:16:03.247Z,99364.66
2023-04-04T21:18:10.264Z,99367.63
2023-04-04T21:20:39.020Z,99372.44
2023-04-04T21:22:40.871Z,99368.50
2023-04-04T21:24:45.115Z,99373.09
2023-04-04T21:26:46.818Z,99366.22
2023-04-04T21:28:48.849Z,99367.28
2023-04-04T21:30:50.351Z,99362.91
2023-04-04T21:32:53.422Z,99360.41
2023-04-04T21:34:54.868Z,99364.16
2023-04-04T21:37:05.258Z,99372.75
2023-04-04T21:39:10.868Z,99373.84
2023-04-04T21:41:30.216Z,99366.97
2023-04-04T21:43:34.602Z,99365.72
2023-04-04T21:45:36.139Z,99364.88
2023-04-04T21:47:37.604Z,99363.22
2023-04-04T21:49:42.137Z,99359.88
2023-04-04T21:51:43.608Z,99361.16
2023-04-04T21:53:45.731Z,99366.81
2023-04-04T21:55:47.171Z,99367.84
2023-04-04T21:57:48.650Z,99358.25
2023-04-04T21:59:53.103Z,99362.06
2023-04-04T22:01:54.693Z,99361.22
2023-04-04T22:03:56.946Z,99357.03
2023-04-04T22:05:58.505Z,99363.31
2023-04-04T22:08:00.143Z,99360.19
2023-04-04T22:10:04.309Z,99360.44
2023-04-04T22:12:07.727Z,99360.88
2023-04-04T22:14:09.168Z,99362.13
2023-04-04T22:16:10.684Z,99353.38
2023-04-04T22:18:17.009Z,99359.84
2023-04-04T22:20:18.480Z,99360.28
2023-04-04T22:22:19.912Z,99361.34
2023-04-04T22:24:21.584Z,99359.69
2023-04-04T22:26:32.128Z,99354.69
2023-04-04T22:28:37.203Z,99353.88
2023-04-04T22:30:41.435Z,99349.72
2023-04-04T22:32:48.453Z,99345.31
2023-04-04T22:34:52.687Z,99346.59
2023-04-04T22:36:54.788Z,99350.56
2023-04-04T22:38:57.147Z,99348.09
2023-04-04T22:41:02.124Z,99346.63
2023-04-04T22:43:03.585Z,99349.78
2023-04-04T22:45:05.533Z,99344.78
2023-04-04T22:47:07.796Z,99339.78
2023-04-04T22:49:09.256Z,99346.28
2023-04-04T22:51:15.159Z,99344.00
2023-04-04T22:53:26.968Z,99346.09
2023-04-04T22:55:29.189Z,99341.28
2023-04-04T22:57:30.740Z,99341.53
2023-04-04T22:59:32.243Z,99338.19
2023-04-04T23:01:34.014Z,99339.25
2023-04-04T23:03:40.927Z,99338.63
2023-04-04T23:05:42.608Z,99337.16
2023-04-04T23:07:45.636Z,99337.38
2023-04-04T23:09:48.071Z,99334.03
2023-04-04T23:11:50.019Z,99337.81
2023-04-04T23:13:59.262Z,99330.91
2023-04-04T23:16:06.607Z,99336.34
2023-04-04T23:18:09.047Z,99333.22
2023-04-04T23:20:10.516Z,99331.34
2023-04-04T23:22:14.959Z,99339.72
2023-04-04T23:24:16.730Z,99330.94
2023-04-04T23:26:18.162Z,99332.00
2023-04-04T23:28:23.300Z,99324.91
2023-04-04T23:30:25.453Z,99325.31
2023-04-04T23:32:29.562Z,99325.78
2023-04-04T23:34:31.057Z,99325.78
2023-04-04T23:36:32.660Z,99325.13
2023-04-04T23:38:34.244Z,99325.38
2023-04-04T23:40:41.550Z,99322.88
2023-04-04T23:42:43.668Z,99322.88
2023-04-04T23:44:45.680Z,99318.72
2023-04-04T23:46:47.608Z,99319.75
2023-04-04T23:48:49.313Z,99311.84
2023-04-04T23:50:56.700Z,99316.63
2023-04-04T23:52:58.250Z,99318.72
2023-04-04T23:54:59.765Z,99309.97
2023-04-04T23:57:01.511Z,99304.13
2023-04-04T23:59:03.744Z,99309.56
